Time;durP1;ratioP1;P1;durP2;ratioP2;P2;SDS_P1;SDS_P2;PMS_P1;PMS_P2;Temp;Humidity;BMP_temperature;BMP_pressure;BME280_temperature;BME280_humidity;BME280_pressure;Samples;Min_cycle;Max_cycle;Signal;HPM_P1;HPM_P2
2022/10/14 00:01:07;;;;;;;;;;;11.30;99.90;;;;;;5070230;28;19913;-82
2022/10/14 00:03:34;;;;;;;;;;;11.30;99.90;;;;;;5072301;28;19909;-81
2022/10/14 00:06:02;;;;;;;;;;;11.20;99.90;;;;;;5068269;28;19916;-83
2022/10/14 00:08:28;;;;;;;;;;;11.20;99.90;;;;;;5066774;28;19924;-82
2022/10/14 00:10:54;;;;;;;;;;;11.20;99.90;;;;;;5068568;28;19913;-82
2022/10/14 00:13:19;;;;;;;;;;;11.20;99.90;;;;;;5064806;28;20280;-82
2022/10/14 00:15:45;;;;;;;;;;;11.20;99.90;;;;;;5064283;28;20380;-83
2022/10/14 00:18:10;;;;;;;;;;;11.20;99.90;;;;;;5064781;28;19944;-82
2022/10/14 00:20:36;;;;;;;;;;;11.20;99.90;;;;;;5065486;28;19913;-82
2022/10/14 00:23:02;;;;;;;;;;;11.20;99.90;;;;;;5066554;28;20395;-83
2022/10/14 00:25:28;;;;;;;;;;;11.20;99.90;;;;;;5067095;28;19912;-83
2022/10/14 00:27:54;;;;;;;;;;;11.20;99.90;;;;;;5066871;28;19913;-82
2022/10/14 00:30:20;;;;;;;;;;;11.20;99.90;;;;;;5064198;28;20400;-82
2022/10/14 00:32:45;;;;;;;;;;;11.20;99.90;;;;;;5067011;28;20408;-82
2022/10/14 00:35:11;;;;;;;;;;;11.20;99.90;;;;;;5065650;28;19923;-81
2022/10/14 00:37:37;;;;;;;;;;;11.20;99.90;;;;;;5072125;28;20000;-82
2022/10/14 00:40:04;;;;;;;;;;;11.20;99.90;;;;;;5067235;28;19967;-81
2022/10/14 00:42:33;;;;;;;;;;;11.20;99.90;;;;;;5072689;28;19908;-81
2022/10/14 00:45:07;;;;;;;;;;;11.10;99.90;;;;;;5071927;28;19924;-82
2022/10/14 00:47:34;;;;;;;;;;;11.10;99.90;;;;;;5076354;28;19924;-83
2022/10/14 00:50:01;;;;;;;;;;;11.20;99.90;;;;;;5077875;28;19901;-83
2022/10/14 00:52:28;;;;;;;;;;;11.10;99.90;;;;;;5078280;28;19905;-84
2022/10/14 00:54:57;;;;;;;;;;;11.10;99.90;;;;;;5078098;28;20016;-82
2022/10/14 00:57:23;;;;;;;;;;;11.10;99.90;;;;;;5075200;28;19921;-79
2022/10/14 00:59:50;;;;;;;;;;;11.10;99.90;;;;;;5073907;28;19920;-82
2022/10/14 01:02:15;;;;;;;;;;;11.10;99.90;;;;;;5066773;28;19976;-81
2022/10/14 01:04:41;;;;;;;;;;;11.10;99.90;;;;;;5066750;28;19916;-82
2022/10/14 01:07:17;;;;;;;;;;;11.10;99.90;;;;;;5064468;28;19917;-81
2022/10/14 01:09:46;;;;;;;;;;;11.10;99.90;;;;;;5062702;28;19996;-81
2022/10/14 01:12:24;;;;;;;;;;;11.10;99.90;;;;;;5064934;28;19908;-82
2022/10/14 01:14:59;;;;;;;;;;;11.10;99.90;;;;;;5066297;28;19920;-82
2022/10/14 01:17:37;;;;;;;;;;;11.10;99.90;;;;;;5072539;28;19897;-81
2022/10/14 01:20:25;;;;;;;;;;;11.00;99.90;;;;;;5071794;28;19917;-81
2022/10/14 01:23:05;;;;;;;;;;;11.00;99.90;;;;;;5068870;28;19912;-81
2022/10/14 01:25:33;;;;;;;;;;;11.00;99.90;;;;;;5068324;28;19913;-83
2022/10/14 01:28:34;;;;;;;;;;;11.00;99.90;;;;;;5065821;28;20000;-82
2022/10/14 01:31:02;;;;;;;;;;;11.00;99.90;;;;;;4987480;28;20016;-81
2022/10/14 01:33:34;;;;;;;;;;;11.00;99.90;;;;;;5048355;28;19909;-82
2022/10/14 01:36:03;;;;;;;;;;;11.00;99.90;;;;;;5064849;28;20392;-83
2022/10/14 01:38:48;;;;;;;;;;;11.00;99.90;;;;;;5065974;28;19916;-81
2022/10/14 01:41:17;;;;;;;;;;;10.90;99.90;;;;;;5063772;28;19916;-82
2022/10/14 01:43:44;;;;;;;;;;;10.90;99.90;;;;;;5065475;28;19913;-82
2022/10/14 01:46:11;;;;;;;;;;;10.80;99.90;;;;;;5063413;28;20214;-82
2022/10/14 01:48:43;;;;;;;;;;;10.80;99.90;;;;;;5063943;28;20539;-81
2022/10/14 01:51:12;;;;;;;;;;;10.80;99.90;;;;;;5065399;28;19920;-81
2022/10/14 01:53:42;;;;;;;;;;;10.80;99.90;;;;;;5064547;28;19986;-82
2022/10/14 01:56:10;;;;;;;;;;;10.70;99.90;;;;;;5064451;28;19912;-83
2022/10/14 01:58:36;;;;;;;;;;;10.70;99.90;;;;;;5066186;28;19923;-82
2022/10/14 02:01:03;;;;;;;;;;;10.70;99.90;;;;;;5050507;28;19928;-82
2022/10/14 02:03:45;;;;;;;;;;;10.70;99.90;;;;;;5068832;28;19913;-82
2022/10/14 02:06:26;;;;;;;;;;;10.70;99.90;;;;;;5070099;28;19940;-83
2022/10/14 02:08:58;;;;;;;;;;;10.70;99.90;;;;;;5070678;28;19917;-82
2022/10/14 02:11:24;;;;;;;;;;;10.60;99.90;;;;;;5070098;28;19901;-83
2022/10/14 02:14:13;;;;;;;;;;;10.60;99.90;;;;;;5073669;28;19956;-82
2022/10/14 02:17:03;;;;;;;;;;;10.50;99.90;;;;;;5059025;28;19972;-81
2022/10/14 02:19:29;;;;;;;;;;;10.40;99.90;;;;;;5062326;28;19900;-81
2022/10/14 02:21:54;;;;;;;;;;;10.40;99.90;;;;;;5070055;28;19916;-83
2022/10/14 02:24:25;;;;;;;;;;;10.40;99.90;;;;;;5063843;28;19944;-82
2022/10/14 02:26:52;;;;;;;;;;;10.40;99.90;;;;;;5064824;28;20349;-82
2022/10/14 02:29:19;;;;;;;;;;;10.40;99.90;;;;;;5061758;28;19909;-83
2022/10/14 02:31:46;;;;;;;;;;;10.40;99.90;;;;;;5062308;28;19913;-82
2022/10/14 02:34:15;;;;;;;;;;;10.50;99.90;;;;;;5063956;28;19963;-82
2022/10/14 02:36:41;;;;;;;;;;;10.50;99.90;;;;;;5062635;28;19966;-82
2022/10/14 02:39:10;;;;;;;;;;;10.50;99.90;;;;;;5058678;28;19919;-81
2022/10/14 02:41:36;;;;;;;;;;;10.50;99.90;;;;;;5061445;28;19970;-81
2022/10/14 02:44:03;;;;;;;;;;;10.50;99.90;;;;;;5062128;28;19916;-82
2022/10/14 02:46:29;;;;;;;;;;;10.40;99.90;;;;;;5062575;28;19913;-82
2022/10/14 02:48:55;;;;;;;;;;;10.40;99.90;;;;;;5063691;28;20027;-82
2022/10/14 02:51:20;;;;;;;;;;;10.40;99.90;;;;;;5062715;28;19943;-82
2022/10/14 02:53:46;;;;;;;;;;;10.40;99.90;;;;;;5062758;28;19909;-81
2022/10/14 02:56:12;;;;;;;;;;;10.40;99.90;;;;;;5067589;28;19924;-81
2022/10/14 02:58:38;;;;;;;;;;;10.40;99.90;;;;;;5070279;28;20357;-82
2022/10/14 03:01:04;;;;;;;;;;;10.40;99.90;;;;;;5072483;28;19996;-82
2022/10/14 03:03:30;;;;;;;;;;;10.40;99.90;;;;;;5069701;28;20015;-83
2022/10/14 03:05:56;;;;;;;;;;;10.50;99.90;;;;;;5070542;23;19940;-79
2022/10/14 03:08:22;;;;;;;;;;;10.50;99.90;;;;;;5020483;28;19913;-78
2022/10/14 03:10:48;;;;;;;;;;;10.50;99.90;;;;;;5021426;28;20384;-78
2022/10/14 03:13:15;;;;;;;;;;;10.60;99.90;;;;;;5020188;28;20373;-79
2022/10/14 03:15:46;;;;;;;;;;;10.60;99.90;;;;;;5027320;28;19919;-78
2022/10/14 03:18:12;;;;;;;;;;;10.60;99.90;;;;;;5057392;28;19988;-78
2022/10/14 03:20:43;;;;;;;;;;;10.70;99.90;;;;;;5023410;28;19962;-78
2022/10/14 03:23:10;;;;;;;;;;;10.70;99.90;;;;;;5038853;28;20362;-79
2022/10/14 03:25:36;;;;;;;;;;;10.70;99.90;;;;;;5039896;28;19909;-81
2022/10/14 03:28:06;;;;;;;;;;;10.70;99.90;;;;;;5038073;28;19917;-78
2022/10/14 03:30:42;;;;;;;;;;;10.80;99.90;;;;;;5038324;28;19913;-78
2022/10/14 03:33:13;;;;;;;;;;;10.80;99.90;;;;;;5039256;28;19920;-78
2022/10/14 03:35:49;;;;;;;;;;;10.90;99.90;;;;;;5043832;28;19974;-78
2022/10/14 03:38:18;;;;;;;;;;;10.90;99.90;;;;;;5043290;28;19916;-77
2022/10/14 03:40:45;;;;;;;;;;;11.00;99.90;;;;;;5042920;28;19920;-78
2022/10/14 03:43:12;;;;;;;;;;;11.00;99.90;;;;;;5046369;28;19924;-78
2022/10/14 03:45:49;;;;;;;;;;;11.10;99.90;;;;;;5046001;28;19909;-78
2022/10/14 03:48:17;;;;;;;;;;;11.10;99.90;;;;;;5022985;28;19917;-80
2022/10/14 03:50:45;;;;;;;;;;;11.10;99.90;;;;;;5038213;28;20345;-78
2022/10/14 03:53:11;;;;;;;;;;;11.10;99.90;;;;;;5038372;28;19926;-78
2022/10/14 03:55:37;;;;;;;;;;;11.20;99.90;;;;;;5056303;28;19909;-79
2022/10/14 03:58:04;;;;;;;;;;;11.10;99.90;;;;;;5038464;28;19923;-79
2022/10/14 04:00:31;;;;;;;;;;;11.20;99.90;;;;;;5042728;28;19916;-78
2022/10/14 04:03:14;;;;;;;;;;;11.20;99.90;;;;;;5041283;28;19919;-78
2022/10/14 04:05:43;;;;;;;;;;;11.20;99.90;;;;;;5024819;28;20041;-78
2022/10/14 04:08:14;;;;;;;;;;;11.20;99.90;;;;;;5039762;28;19935;-78
2022/10/14 04:10:45;;;;;;;;;;;11.20;99.90;;;;;;5038786;28;19917;-79
2022/10/14 04:13:13;;;;;;;;;;;11.30;99.90;;;;;;5039193;28;19923;-79
2022/10/14 04:15:39;;;;;;;;;;;11.30;99.90;;;;;;5039237;28;19994;-78
2022/10/14 04:18:13;;;;;;;;;;;11.40;99.90;;;;;;5037528;28;20350;-79
2022/10/14 04:20:40;;;;;;;;;;;11.40;99.90;;;;;;5041625;28;19999;-77
2022/10/14 04:23:07;;;;;;;;;;;11.40;99.90;;;;;;5052523;28;19913;-79
2022/10/14 04:25:36;;;;;;;;;;;11.50;99.90;;;;;;5059279;28;19935;-77
2022/10/14 04:28:02;;;;;;;;;;;11.50;99.90;;;;;;5043865;28;19921;-77
2022/10/14 04:30:41;;;;;;;;;;;11.50;99.90;;;;;;5061446;28;19947;-78
2022/10/14 04:33:11;;;;;;;;;;;11.50;99.90;;;;;;5053000;28;19952;-78
2022/10/14 04:35:37;;;;;;;;;;;11.50;99.90;;;;;;5061019;28;19920;-77
2022/10/14 04:38:05;;;;;;;;;;;11.50;99.90;;;;;;5040548;28;19916;-80
2022/10/14 04:40:31;;;;;;;;;;;11.50;99.90;;;;;;5044415;28;19920;-77
2022/10/14 04:42:57;;;;;;;;;;;11.60;99.90;;;;;;5043913;28;20340;-79
2022/10/14 04:45:30;;;;;;;;;;;11.60;99.90;;;;;;5044200;28;19913;-79
2022/10/14 04:48:00;;;;;;;;;;;11.60;99.90;;;;;;5031955;28;19917;-78
2022/10/14 04:50:26;;;;;;;;;;;11.60;99.90;;;;;;5043022;28;19913;-80
2022/10/14 04:53:30;;;;;;;;;;;11.70;99.90;;;;;;5035741;28;20384;-78
2022/10/14 04:56:16;;;;;;;;;;;11.70;99.90;;;;;;5020953;28;20400;-78
2022/10/14 04:58:54;;;;;;;;;;;11.70;99.90;;;;;;5029094;28;19913;-78
2022/10/14 05:01:26;;;;;;;;;;;11.80;99.90;;;;;;5039317;28;19940;-80
2022/10/14 05:03:52;;;;;;;;;;;11.80;99.90;;;;;;5039210;28;20384;-79
2022/10/14 05:06:18;;;;;;;;;;;11.70;99.90;;;;;;5038679;28;20388;-80
2022/10/14 05:08:45;;;;;;;;;;;11.80;99.90;;;;;;5039805;28;19964;-80
2022/10/14 05:11:12;;;;;;;;;;;11.80;99.90;;;;;;5039965;28;20034;-80
2022/10/14 05:13:47;;;;;;;;;;;11.80;99.90;;;;;;5041040;28;19980;-80
2022/10/14 05:16:14;;;;;;;;;;;11.80;99.90;;;;;;5058964;28;19916;-80
2022/10/14 05:18:40;;;;;;;;;;;11.80;99.90;;;;;;5043456;28;19954;-79
2022/10/14 05:21:08;;;;;;;;;;;11.90;99.90;;;;;;5027628;28;19920;-79
2022/10/14 05:23:45;;;;;;;;;;;11.90;99.90;;;;;;5030811;28;19920;-79
2022/10/14 05:26:11;;;;;;;;;;;11.80;99.90;;;;;;5044773;28;19913;-79
2022/10/14 05:28:39;;;;;;;;;;;11.90;99.90;;;;;;5038026;28;19912;-79
2022/10/14 05:31:05;;;;;;;;;;;11.90;99.90;;;;;;5022883;28;20036;-79
2022/10/14 05:33:35;;;;;;;;;;;11.80;99.90;;;;;;5047026;28;19909;-78
2022/10/14 05:36:02;;;;;;;;;;;11.80;99.90;;;;;;5030177;28;20349;-80
2022/10/14 05:38:32;;;;;;;;;;;11.80;99.90;;;;;;5040374;28;19931;-79
2022/10/14 05:40:58;;;;;;;;;;;11.80;99.90;;;;;;5041097;28;19971;-79
2022/10/14 05:43:24;;;;;;;;;;;11.90;99.90;;;;;;5040736;28;19909;-79
2022/10/14 05:45:50;;;;;;;;;;;11.90;99.90;;;;;;5024488;28;19935;-81
2022/10/14 05:48:16;;;;;;;;;;;11.90;99.90;;;;;;5039873;28;19987;-80
2022/10/14 05:50:42;;;;;;;;;;;12.00;99.90;;;;;;5056754;28;19913;-79
2022/10/14 05:53:11;;;;;;;;;;;12.00;99.90;;;;;;5039275;28;19932;-80
2022/10/14 05:55:41;;;;;;;;;;;12.10;99.90;;;;;;5039980;28;19913;-80
2022/10/14 05:58:07;;;;;;;;;;;12.20;99.90;;;;;;5038219;28;20358;-79
2022/10/14 06:00:38;;;;;;;;;;;12.20;99.90;;;;;;5056122;28;20003;-80
2022/10/14 06:03:10;;;;;;;;;;;12.30;99.90;;;;;;5039654;28;19901;-78
2022/10/14 06:05:37;;;;;;;;;;;12.30;99.90;;;;;;5044416;28;19928;-81
2022/10/14 06:08:03;;;;;;;;;;;12.40;99.90;;;;;;5024755;28;19954;-79
2022/10/14 06:10:31;;;;;;;;;;;12.40;99.90;;;;;;5038705;28;19920;-79
2022/10/14 06:12:58;;;;;;;;;;;12.40;99.90;;;;;;5041540;28;19909;-80
2022/10/14 06:15:27;;;;;;;;;;;12.40;99.90;;;;;;5039298;28;20284;-79
2022/10/14 06:17:53;;;;;;;;;;;12.50;99.90;;;;;;5021840;28;19929;-81
2022/10/14 06:20:19;;;;;;;;;;;12.50;99.90;;;;;;5040054;28;19965;-80
2022/10/14 06:22:45;;;;;;;;;;;12.50;99.90;;;;;;5065368;28;19922;-78
2022/10/14 06:25:11;;;;;;;;;;;12.60;99.90;;;;;;5070099;28;20129;-78
2022/10/14 06:27:36;;;;;;;;;;;12.60;99.90;;;;;;5069656;28;19939;-81
2022/10/14 06:30:02;;;;;;;;;;;12.60;99.90;;;;;;5063797;28;19916;-79
2022/10/14 06:32:28;;;;;;;;;;;12.70;99.90;;;;;;5026086;28;19909;-79
2022/10/14 06:34:54;;;;;;;;;;;12.60;99.90;;;;;;5059713;28;20063;-79
2022/10/14 06:37:19;;;;;;;;;;;12.70;99.90;;;;;;5043845;28;19947;-80
2022/10/14 06:39:45;;;;;;;;;;;12.70;99.90;;;;;;5043521;28;19939;-79
2022/10/14 06:42:11;;;;;;;;;;;12.70;99.90;;;;;;5059834;28;19909;-82
2022/10/14 06:44:38;;;;;;;;;;;12.60;99.90;;;;;;5042790;28;19913;-80
2022/10/14 06:47:04;;;;;;;;;;;12.70;99.90;;;;;;5065178;28;20324;-79
2022/10/14 06:49:30;;;;;;;;;;;12.60;99.90;;;;;;5068691;28;19920;-80
2022/10/14 06:51:56;;;;;;;;;;;12.50;99.90;;;;;;5060793;28;19909;-78
2022/10/14 06:54:21;;;;;;;;;;;12.50;99.90;;;;;;5043733;28;20369;-79
2022/10/14 06:56:47;;;;;;;;;;;12.50;99.90;;;;;;5043598;28;19908;-79
2022/10/14 06:59:13;;;;;;;;;;;12.50;99.90;;;;;;5041634;28;20008;-79
2022/10/14 07:01:38;;;;;;;;;;;12.40;99.90;;;;;;5059173;28;19913;-80
2022/10/14 07:04:04;;;;;;;;;;;12.40;99.90;;;;;;5058493;28;19965;-80
2022/10/14 07:06:30;;;;;;;;;;;12.40;99.90;;;;;;5060421;28;19966;-81
2022/10/14 07:08:56;;;;;;;;;;;12.50;99.90;;;;;;5058653;28;19971;-79
2022/10/14 07:11:21;;;;;;;;;;;12.40;99.90;;;;;;5040332;28;19978;-80
2022/10/14 07:13:47;;;;;;;;;;;12.50;99.90;;;;;;5040202;28;19966;-80
2022/10/14 07:16:12;;;;;;;;;;;12.50;99.90;;;;;;5064487;28;19984;-80
2022/10/14 07:18:38;;;;;;;;;;;12.50;99.90;;;;;;5063567;28;20332;-77
2022/10/14 07:21:04;;;;;;;;;;;12.50;99.90;;;;;;5028790;28;19909;-78
2022/10/14 07:23:30;;;;;;;;;;;12.40;99.90;;;;;;5062412;28;19993;-78
2022/10/14 07:25:56;;;;;;;;;;;12.50;99.90;;;;;;5041583;28;19912;-79
2022/10/14 07:28:22;;;;;;;;;;;12.40;99.90;;;;;;5057271;28;19916;-79
2022/10/14 07:30:57;;;;;;;;;;;12.40;99.90;;;;;;5058674;28;19935;-79
2022/10/14 07:33:23;;;;;;;;;;;12.40;99.90;;;;;;5056935;28;19920;-78
2022/10/14 07:35:48;;;;;;;;;;;12.40;99.90;;;;;;5039723;28;19981;-79
2022/10/14 07:38:14;;;;;;;;;;;12.40;99.90;;;;;;5059573;28;19948;-79
2022/10/14 07:40:39;;;;;;;;;;;12.40;99.90;;;;;;5067830;28;19909;-78
2022/10/14 07:43:05;;;;;;;;;;;12.50;99.90;;;;;;5064832;28;19917;-78
2022/10/14 07:45:34;;;;;;;;;;;12.40;99.90;;;;;;5063953;28;20006;-78
2022/10/14 07:48:00;;;;;;;;;;;12.40;99.90;;;;;;5059404;28;19924;-80
2022/10/14 07:50:26;;;;;;;;;;;12.40;99.90;;;;;;5057354;28;19909;-79
2022/10/14 07:52:52;;;;;;;;;;;12.50;99.90;;;;;;5058407;28;19920;-79
2022/10/14 07:55:17;;;;;;;;;;;12.40;99.90;;;;;;5038223;28;20266;-80
2022/10/14 07:57:43;;;;;;;;;;;12.40;99.90;;;;;;5057246;28;19912;-80
2022/10/14 08:00:09;;;;;;;;;;;12.40;99.90;;;;;;5056270;28;20264;-79
2022/10/14 08:02:38;;;;;;;;;;;12.40;99.90;;;;;;5038925;28;19912;-79
2022/10/14 08:05:04;;;;;;;;;;;12.40;99.90;;;;;;5057234;28;19918;-79
2022/10/14 08:07:30;;;;;;;;;;;12.40;99.90;;;;;;5059222;28;19916;-80
2022/10/14 08:09:56;;;;;;;;;;;12.50;99.90;;;;;;5042882;28;19913;-79
2022/10/14 08:12:22;;;;;;;;;;;12.50;99.90;;;;;;5048250;28;19919;-80
2022/10/14 08:14:47;;;;;;;;;;;12.50;99.90;;;;;;5046638;28;19944;-78
2022/10/14 08:17:13;;;;;;;;;;;12.60;99.90;;;;;;5047268;28;19971;-78
2022/10/14 08:19:38;;;;;;;;;;;12.60;99.90;;;;;;5064222;28;20470;-77
2022/10/14 08:22:04;;;;;;;;;;;12.60;99.90;;;;;;5064288;28;19948;-79
2022/10/14 08:24:30;;;;;;;;;;;12.70;99.90;;;;;;5062352;28;20415;-80
2022/10/14 08:26:57;;;;;;;;;;;12.80;99.90;;;;;;5062578;28;19917;-81
2022/10/14 08:29:23;;;;;;;;;;;12.90;99.90;;;;;;5056654;28;19905;-80
2022/10/14 08:31:50;;;;;;;;;;;13.00;99.90;;;;;;5060389;28;19905;-80
2022/10/14 08:34:19;;;;;;;;;;;13.00;99.90;;;;;;5056310;28;19917;-79
2022/10/14 08:36:48;;;;;;;;;;;13.00;99.90;;;;;;5067748;28;19913;-79
2022/10/14 08:39:15;;;;;;;;;;;13.00;99.90;;;;;;5062929;28;19912;-79
2022/10/14 08:41:45;;;;;;;;;;;13.00;99.90;;;;;;5043456;28;19934;-78
2022/10/14 08:44:17;;;;;;;;;;;13.00;99.90;;;;;;5063313;28;20033;-79
2022/10/14 08:46:49;;;;;;;;;;;13.20;99.90;;;;;;5062247;28;19920;-81
2022/10/14 08:49:18;;;;;;;;;;;13.30;99.90;;;;;;5064741;28;19913;-78
2022/10/14 08:51:47;;;;;;;;;;;13.40;99.90;;;;;;5062150;28;19925;-80
2022/10/14 08:54:21;;;;;;;;;;;13.50;99.90;;;;;;5058273;28;19917;-79
2022/10/14 08:56:47;;;;;;;;;;;13.60;99.90;;;;;;5057094;28;19920;-81
2022/10/14 08:59:14;;;;;;;;;;;13.70;99.90;;;;;;5057777;28;19909;-79
2022/10/14 09:01:47;;;;;;;;;;;13.70;99.90;;;;;;5057625;28;19913;-79
2022/10/14 09:04:13;;;;;;;;;;;13.80;99.90;;;;;;5057443;28;19920;-80
2022/10/14 09:06:41;;;;;;;;;;;14.10;99.90;;;;;;5079731;22;19929;-83
2022/10/14 09:09:17;;;;;;;;;;;14.50;99.90;;;;;;5052265;28;20426;-85
2022/10/14 09:11:45;;;;;;;;;;;15.00;99.90;;;;;;5051858;28;20357;-86
2022/10/14 09:14:21;;;;;;;;;;;15.40;99.90;;;;;;5035996;28;19909;-88
2022/10/14 09:16:51;;;;;;;;;;;15.60;99.90;;;;;;5067054;28;19964;-86
2022/10/14 09:19:17;;;;;;;;;;;15.60;99.90;;;;;;5075226;28;19936;-84
2022/10/14 09:21:44;;;;;;;;;;;15.50;99.90;;;;;;5078272;28;19905;-83
2022/10/14 09:24:15;;;;;;;;;;;15.40;99.90;;;;;;5077215;28;19935;-82
2022/10/14 09:26:42;;;;;;;;;;;15.40;99.90;;;;;;5078245;28;19905;-84
2022/10/14 09:29:19;;;;;;;;;;;15.30;99.90;;;;;;5077069;28;20016;-83
2022/10/14 09:31:45;;;;;;;;;;;15.30;99.90;;;;;;5078255;28;19936;-83
2022/10/14 09:34:15;;;;;;;;;;;15.40;99.90;;;;;;5077720;28;19901;-85
2022/10/14 09:36:41;;;;;;;;;;;15.40;99.90;;;;;;5076439;28;19917;-84
2022/10/14 09:39:09;;;;;;;;;;;15.50;99.90;;;;;;5077110;28;19968;-84
2022/10/14 09:41:38;;;;;;;;;;;15.50;99.90;;;;;;5075202;28;20400;-84
2022/10/14 09:44:24;;;;;;;;;;;15.50;99.90;;;;;;5077582;28;19905;-84
2022/10/14 09:47:02;;;;;;;;;;;15.60;99.90;;;;;;5060310;28;19905;-82
2022/10/14 09:49:31;;;;;;;;;;;15.70;99.90;;;;;;5076859;28;19905;-84
2022/10/14 09:51:56;;;;;;;;;;;15.80;99.90;;;;;;5077273;28;19901;-85
2022/10/14 09:54:25;;;;;;;;;;;16.10;99.90;;;;;;5076312;28;19915;-83
2022/10/14 09:56:57;;;;;;;;;;;16.30;99.90;;;;;;5075933;28;19967;-84
2022/10/14 09:59:23;;;;;;;;;;;16.50;99.90;;;;;;5075860;28;19911;-85
2022/10/14 10:01:49;;;;;;;;;;;16.50;99.90;;;;;;5077391;28;19913;-84
2022/10/14 10:04:30;;;;;;;;;;;16.60;99.90;;;;;;5075207;28;19920;-85
2022/10/14 10:06:58;;;;;;;;;;;16.70;99.90;;;;;;5074791;28;20411;-85
2022/10/14 10:09:23;;;;;;;;;;;16.90;99.90;;;;;;5058498;28;19947;-85
2022/10/14 10:11:49;;;;;;;;;;;17.10;99.90;;;;;;5076007;28;19913;-85
2022/10/14 10:14:16;;;;;;;;;;;17.20;99.90;;;;;;5075758;28;19913;-85
2022/10/14 10:16:41;;;;;;;;;;;17.30;99.90;;;;;;5076359;28;19927;-85
2022/10/14 10:19:22;;;;;;;;;;;17.20;99.90;;;;;;5076168;28;19901;-85
2022/10/14 10:21:48;;;;;;;;;;;17.20;99.90;;;;;;5073422;28;19987;-86
2022/10/14 10:24:20;;;;;;;;;;;17.20;99.90;;;;;;5073227;28;19916;-86
2022/10/14 10:26:46;;;;;;;;;;;17.10;99.90;;;;;;5075041;28;19928;-86
2022/10/14 10:29:34;;;;;;;;;;;17.10;99.90;;;;;;5057913;28;19909;-84
2022/10/14 10:32:13;;;;;;;;;;;17.10;99.90;;;;;;5075014;28;19950;-86
2022/10/14 10:34:44;;;;;;;;;;;17.00;99.90;;;;;;5075762;28;19952;-83
2022/10/14 10:37:11;;;;;;;;;;;17.00;99.90;;;;;;5067803;28;19923;-86
2022/10/14 10:39:56;;;;;;;;;;;17.00;99.90;;;;;;5064068;28;20412;-85
2022/10/14 10:42:25;;;;;;;;;;;17.10;99.90;;;;;;5063361;28;19960;-85
2022/10/14 10:44:52;;;;;;;;;;;17.20;99.90;;;;;;5063157;28;19936;-85
2022/10/14 10:47:20;;;;;;;;;;;17.60;99.90;;;;;;5064229;28;19987;-85
2022/10/14 10:49:46;;;;;;;;;;;17.90;99.90;;;;;;5065954;28;20415;-85
2022/10/14 10:52:27;;;;;;;;;;;17.90;99.90;;;;;;5066977;28;19909;-87
2022/10/14 10:54:59;;;;;;;;;;;17.80;99.90;;;;;;5068341;28;19913;-86
2022/10/14 10:57:31;;;;;;;;;;;17.70;99.90;;;;;;5069873;28;19923;-83
2022/10/14 11:00:07;;;;;;;;;;;17.60;99.90;;;;;;5073605;28;19917;-85
2022/10/14 11:02:39;;;;;;;;;;;17.70;99.90;;;;;;5075849;28;19923;-86
2022/10/14 11:05:14;;;;;;;;;;;18.00;99.90;;;;;;5076737;28;19909;-83
2022/10/14 11:13:26;;;;;;;;;;;23.80;99.90;;;;;;5077375;28;19904;-82
2022/10/14 11:15:57;;;;;;;;;;;26.10;99.90;;;;;;5076700;28;20015;-87
2022/10/14 11:18:36;;;;;;;;;;;28.30;98.40;;;;;;5076107;28;19934;-87
2022/10/14 11:21:18;;;;;;;;;;;28.90;95.60;;;;;;5075483;28;19913;-85
2022/10/14 11:23:47;;;;;;;;;;;28.30;94.80;;;;;;5075988;28;19927;-88
2022/10/14 11:26:19;;;;;;;;;;;27.20;95.60;;;;;;5078985;28;19908;-85
2022/10/14 11:28:54;;;;;;;;;;;26.30;95.90;;;;;;5078888;28;19916;-85
2022/10/14 11:31:32;;;;;;;;;;;25.30;97.10;;;;;;5078861;28;19905;-87
2022/10/14 11:34:18;;;;;;;;;;;24.80;97.90;;;;;;5079044;28;19916;-86
2022/10/14 11:36:50;;;;;;;;;;;23.90;99.20;;;;;;5072330;28;19985;-90
2022/10/14 11:39:28;;;;;;;;;;;23.10;99.90;;;;;;5078503;28;19988;-84
2022/10/14 11:42:12;;;;;;;;;;;22.50;99.90;;;;;;5080547;28;19912;-82
2022/10/14 11:44:40;;;;;;;;;;;22.20;99.90;;;;;;5080518;28;19944;-83
2022/10/14 11:47:20;;;;;;;;;;;22.30;99.90;;;;;;5079590;28;19917;-83
2022/10/14 11:49:46;;;;;;;;;;;22.10;99.90;;;;;;5079346;28;19917;-84
2022/10/14 11:52:27;;;;;;;;;;;21.60;99.90;;;;;;5079312;28;19931;-84
2022/10/14 11:54:55;;;;;;;;;;;21.80;99.90;;;;;;5079590;28;19905;-84
2022/10/14 11:57:37;;;;;;;;;;;22.30;99.90;;;;;;5072722;28;19913;-85
2022/10/14 12:00:05;;;;;;;;;;;23.40;99.90;;;;;;5076557;28;19965;-85
2022/10/14 12:02:56;;;;;;;;;;;24.90;98.20;;;;;;5075224;28;19915;-89
2022/10/14 12:05:37;;;;;;;;;;;26.40;97.10;;;;;;5067345;28;19900;-87
2022/10/14 12:08:24;;;;;;;;;;;27.70;93.50;;;;;;5071024;28;19916;-87
2022/10/14 12:10:53;;;;;;;;;;;26.00;92.60;;;;;;5071532;28;19913;-86
2022/10/14 12:13:22;;;;;;;;;;;24.10;94.80;;;;;;5073024;28;19934;-88
2022/10/14 12:15:50;;;;;;;;;;;23.10;97.20;;;;;;5074285;28;19921;-86
2022/10/14 12:18:18;;;;;;;;;;;23.10;97.70;;;;;;5068073;28;19905;-86
2022/10/14 12:20:54;;;;;;;;;;;23.60;97.30;;;;;;5069253;28;19913;-87
2022/10/14 12:23:22;;;;;;;;;;;23.60;97.10;;;;;;5070019;28;20000;-88
2022/10/14 12:25:56;;;;;;;;;;;23.10;97.60;;;;;;5069512;28;19913;-88
2022/10/14 12:28:22;;;;;;;;;;;22.90;98.70;;;;;;5066281;28;19924;-88
2022/10/14 12:30:50;;;;;;;;;;;22.40;99.90;;;;;;5069213;28;19976;-87
2022/10/14 12:33:16;;;;;;;;;;;22.30;99.90;;;;;;5071526;28;19955;-86
2022/10/14 12:35:44;;;;;;;;;;;22.30;99.90;;;;;;5078316;28;19905;-85
2022/10/14 12:38:11;;;;;;;;;;;22.10;99.60;;;;;;5079179;28;19913;-83
2022/10/14 12:40:36;;;;;;;;;;;21.70;99.90;;;;;;5078541;28;19901;-85
2022/10/14 12:43:03;;;;;;;;;;;21.20;99.90;;;;;;5078769;28;19912;-85
2022/10/14 12:45:31;;;;;;;;;;;21.00;99.90;;;;;;5061872;28;19944;-84
2022/10/14 12:48:03;;;;;;;;;;;20.90;99.90;;;;;;5079285;28;19921;-83
2022/10/14 12:50:38;;;;;;;;;;;20.90;99.90;;;;;;5079114;28;19941;-83
2022/10/14 12:53:06;;;;;;;;;;;20.90;99.90;;;;;;5072719;28;19917;-87
2022/10/14 12:55:53;;;;;;;;;;;21.00;99.90;;;;;;5068307;28;19916;-86
2022/10/14 12:58:25;;;;;;;;;;;21.00;99.90;;;;;;5069324;28;19925;-88
2022/10/14 13:00:59;;;;;;;;;;;21.00;99.90;;;;;;5071027;28;19963;-86
2022/10/14 13:03:26;;;;;;;;;;;20.80;99.90;;;;;;5071652;28;19920;-89
2022/10/14 13:05:52;;;;;;;;;;;21.00;99.90;;;;;;5068918;28;19913;-87
2022/10/14 13:08:18;;;;;;;;;;;20.90;99.90;;;;;;5074057;28;20233;-86
2022/10/14 13:10:49;;;;;;;;;;;20.80;99.90;;;;;;5073983;28;19909;-86
2022/10/14 13:13:33;;;;;;;;;;;20.80;99.90;;;;;;5074992;28;19913;-87
2022/10/14 13:15:59;;;;;;;;;;;20.40;99.90;;;;;;5077921;28;19909;-83
2022/10/14 13:18:47;;;;;;;;;;;20.20;99.90;;;;;;5078325;28;19975;-86
2022/10/14 13:21:29;;;;;;;;;;;19.90;99.90;;;;;;5078432;28;19905;-87
2022/10/14 13:23:57;;;;;;;;;;;19.80;99.90;;;;;;5078478;28;19917;-86
2022/10/14 13:26:27;;;;;;;;;;;19.50;99.90;;;;;;5077800;28;19900;-84
2022/10/14 13:28:53;;;;;;;;;;;19.30;99.90;;;;;;5057364;28;19952;-87
2022/10/14 13:31:44;;;;;;;;;;;19.20;99.90;;;;;;5070876;28;19908;-87
2022/10/14 13:34:20;;;;;;;;;;;19.10;99.90;;;;;;5036028;28;19924;-86
2022/10/14 13:36:55;;;;;;;;;;;18.90;99.90;;;;;;5068616;28;19913;-88
2022/10/14 13:39:21;;;;;;;;;;;18.70;99.90;;;;;;5068560;28;19916;-87
2022/10/14 13:41:49;;;;;;;;;;;18.60;99.90;;;;;;5068527;28;19920;-88
2022/10/14 13:44:20;;;;;;;;;;;18.60;99.90;;;;;;5048573;28;19974;-89
2022/10/14 13:46:47;;;;;;;;;;;18.60;99.90;;;;;;5064685;28;19913;-87
2022/10/14 13:49:16;;;;;;;;;;;18.60;99.90;;;;;;5066873;28;19908;-87
2022/10/14 13:51:48;;;;;;;;;;;18.60;99.90;;;;;;5066218;28;19984;-86
2022/10/14 13:54:24;;;;;;;;;;;18.70;99.90;;;;;;5070655;28;19920;-85
2022/10/14 13:56:57;;;;;;;;;;;18.60;99.90;;;;;;5070729;28;19913;-87
2022/10/14 13:59:23;;;;;;;;;;;18.50;99.90;;;;;;5073197;28;19931;-87
2022/10/14 14:01:50;;;;;;;;;;;18.40;99.90;;;;;;5077158;28;19905;-87
2022/10/14 14:04:22;;;;;;;;;;;18.20;99.90;;;;;;5077243;28;19905;-84
2022/10/14 14:06:48;;;;;;;;;;;18.10;99.90;;;;;;5077588;28;19975;-84
2022/10/14 14:09:25;;;;;;;;;;;17.90;99.90;;;;;;5077660;28;19907;-84
2022/10/14 14:11:56;;;;;;;;;;;17.90;99.90;;;;;;5077187;28;19905;-84
2022/10/14 14:14:31;;;;;;;;;;;17.70;99.90;;;;;;5069480;28;20447;-86
2022/10/14 14:16:58;;;;;;;;;;;17.60;99.90;;;;;;5069457;28;19900;-86
2022/10/14 14:19:25;;;;;;;;;;;17.60;99.90;;;;;;5076947;28;19905;-86
2022/10/14 14:21:51;;;;;;;;;;;17.70;99.90;;;;;;5077475;28;19908;-84
2022/10/14 14:24:24;;;;;;;;;;;17.70;99.90;;;;;;5068532;28;19901;-88
2022/10/14 14:26:54;;;;;;;;;;;17.70;99.90;;;;;;5066210;28;19920;-86
2022/10/14 14:29:25;;;;;;;;;;;17.70;99.90;;;;;;5070502;28;19897;-87
2022/10/14 14:31:51;;;;;;;;;;;17.70;99.90;;;;;;5066946;28;19924;-88
2022/10/14 14:34:17;;;;;;;;;;;17.60;99.90;;;;;;5073059;28;19909;-90
2022/10/14 14:36:44;;;;;;;;;;;17.60;99.90;;;;;;5070661;28;19913;-88